Shoyo Maru — JG5356 — position and weather

sailwx.info

Track history (hours):
 
Tides and Currents Weather Stations Pressure Air Temp Water Temp Dewpoint Dewpoint Depression Visibility Wind Speed Wind Dir Waves Ship Positions

Shoyo Maru

Last reported at 2018-Jun-13 07:39 UTC. Time now 2018-Jun-23 08:01 UTC.
Position N 34°25' E 134°21'.
Warning: this ship's position is 10 days out of date.

Length 76 m; draft 4 m.

Type: Cargo ship. MMSI: 431100299.

Date/timePositionNaut miles runAvg speedWind from/ knotsBaromVisibWave heightAir tempDewpointWater temp
2018-Jun-13 07:39N 34°25' E 134°21'712.4
2018-Jun-13 07:05N 34°27' E 134°29'112.4
2018-Jun-13 07:00N 34°28' E 134°30'612.2
2018-Jun-13 06:30N 34°30' E 134°37'612.0
2018-Jun-13 06:01N 34°32' E 134°44'611.2
2018-Jun-13 05:31N 34°34' E 134°50'6 9.6
2018-Jun-13 04:53N 34°37' E 134°57'4 8.6
2018-Jun-13 04:27N 34°37' E 135°01'3 7.0
2018-Jun-13 04:01N 34°36' E 135°04'510.5
2018-Jun-13 03:30N 34°35' E 135°11'611.6
2018-Jun-13 02:59N 34°34' E 135°18'611.6
2018-Jun-13 02:28N 34°33' E 135°25'1 0.3
2018-Jun-12 22:38N 34°34' E 135°26'0 0.5
2018-Jun-12 22:18N 34°33' E 135°26'1 2.2
2018-Jun-12 22:00N 34°33' E 135°25'0 0.0
2018-Jun-12 21:30N 34°33' E 135°25'0 0.0
2018-Jun-12 20:54N 34°33' E 135°25'0 0.0
2018-Jun-12 20:24N 34°33' E 135°25'0 0.0
2018-Jun-12 19:48N 34°33' E 135°25'0 0.1
2018-Jun-12 19:12N 34°33' E 135°25'0 0.2
2018-Jun-12 18:54N 34°33' E 135°25'0 0.0
2018-Jun-12 18:30N 34°33' E 135°25'0 0.0
2018-Jun-12 17:49N 34°33' E 135°25'1 3.7
2018-Jun-12 17:30N 34°33' E 135°24'611.9
2018-Jun-12 17:00N 34°34' E 135°17'612.4
2018-Jun-12 16:30N 34°35' E 135°09'714.8
2018-Jun-12 16:00N 34°37' E 135°01'813.8
2018-Jun-12 15:26N 34°34' E 134°52'512.7
2018-Jun-12 15:00N 34°32' E 134°46'612.1
2018-Jun-12 14:29N 34°30' E 134°39'612.0
2018-Jun-12 13:59N 34°27' E 134°32'711.7
2018-Jun-12 13:25N 34°25' E 134°24'  
2018-Jun-07 05:05N 34°35' E 134°14'512.9
2018-Jun-07 04:42N 34°35' E 134°20'611.0
2018-Jun-07 04:07N 34°31' E 134°27'113.0
2018-Jun-07 04:00N 34°30' E 134°28'712.9
2018-Jun-07 03:30N 34°24' E 134°32'613.0
2018-Jun-07 03:00N 34°18' E 134°35'712.6
2018-Jun-07 02:28N 34°13' E 134°40'612.3
2018-Jun-07 02:00N 34°08' E 134°45'611.9
2018-Jun-07 01:30N 34°04' E 134°49'612.2
2018-Jun-07 00:59N 33°59' E 134°54'612.0
2018-Jun-07 00:30N 33°54' E 134°58'612.0
2018-Jun-07 00:00N 33°50' E 135°03'24510.3
2018-Jun-06 00:20N 35°09' E 139°44'612.4
2018-Jun-05 23:53N 35°15' E 139°46'512.5
2018-Jun-05 23:30N 35°19' E 139°43'611.9
2018-Jun-05 23:00N 35°25' E 139°43'2 3.8
2018-Jun-05 22:28N 35°27' E 139°43'0 0.0
2018-Jun-05 21:58N 35°27' E 139°43'0 0.0
2018-Jun-05 21:25N 35°27' E 139°43'0 0.0
2018-Jun-05 20:58N 35°27' E 139°43'0 0.0
2018-Jun-05 20:28N 35°27' E 139°43'1 2.3
2018-Jun-05 20:01N 35°28' E 139°43'0 0.6
2018-Jun-05 19:28N 35°28' E 139°43'0 0.0
2018-Jun-05 18:58N 35°28' E 139°43'0 0.0
2018-Jun-05 18:28N 35°28' E 139°43'0 0.0
2018-Jun-05 17:58N 35°28' E 139°43'0 0.0
2018-Jun-05 17:28N 35°28' E 139°43'0 0.0
2018-Jun-05 16:58N 35°28' E 139°43'0 0.0
2018-Jun-05 16:28N 35°28' E 139°43'0 0.0
2018-Jun-05 15:58N 35°28' E 139°43'0 0.0
2018-Jun-05 15:28N 35°28' E 139°43'0 0.0
2018-Jun-05 14:58N 35°28' E 139°43'0 0.1
2018-Jun-05 14:28N 35°28' E 139°43'0 0.1
2018-Jun-05 13:58N 35°28' E 139°43'0 0.0
2018-Jun-05 13:28N 35°28' E 139°43'0 0.1
2018-Jun-05 12:58N 35°28' E 139°43'0 0.0
2018-Jun-05 12:28N 35°28' E 139°43'0 0.0
2018-Jun-05 11:58N 35°28' E 139°43'0 0.1
2018-Jun-05 11:28N 35°28' E 139°43'0 0.0
2018-Jun-05 10:58N 35°28' E 139°43'0 0.0
2018-Jun-05 10:25N 35°28' E 139°43'0 0.0
2018-Jun-05 09:58N 35°28' E 139°43'0 0.0
2018-Jun-05 09:25N 35°28' E 139°43'0 0.0
2018-Jun-05 08:58N 35°28' E 139°43'0 0.0
2018-Jun-05 08:28N 35°28' E 139°43'0 0.0
2018-Jun-05 07:58N 35°28' E 139°43'0 0.0
2018-Jun-05 07:28N 35°28' E 139°43'0 0.0
2018-Jun-05 06:58N 35°28' E 139°43'0 0.0
2018-Jun-05 06:28N 35°28' E 139°43'0 0.0
2018-Jun-05 05:58N 35°28' E 139°43'0 0.0
2018-Jun-05 05:28N 35°28' E 139°43'0 0.0
2018-Jun-05 04:58N 35°28' E 139°43'0 0.0
2018-Jun-05 04:28N 35°28' E 139°43'0 0.0
2018-Jun-05 03:58N 35°28' E 139°43'0 0.0
2018-Jun-05 03:28N 35°28' E 139°43'0 0.0
2018-Jun-05 02:58N 35°28' E 139°43'0 0.0
2018-Jun-05 02:28N 35°28' E 139°43'0 0.0
2018-Jun-05 01:58N 35°28' E 139°43'0 0.1
2018-Jun-05 01:28N 35°28' E 139°43'0 0.0
2018-Jun-05 00:58N 35°28' E 139°43'0 0.1
2018-Jun-05 00:28N 35°28' E 139°43'0 0.0
2018-Jun-04 23:58N 35°28' E 139°43'0 0.0
2018-Jun-04 23:28N 35°28' E 139°43'0 0.3
2018-Jun-04 23:00N 35°28' E 139°43'3 6.7
2018-Jun-04 22:30N 35°25' E 139°45'4 9.0
2018-Jun-04 22:00N 35°21' E 139°45'4 8.3
2018-Jun-04 21:30N 35°17' E 139°46'5 9.0
2018-Jun-04 21:00N 35°12' E 139°47'  
Track history (hours):
 
Tides and Currents Weather Stations Pressure Air Temp Water Temp Dewpoint Dewpoint Depression Visibility Wind Speed Wind Dir Waves Ship Positions

Shoyo Maru

Last reported at 2018-Jun-13 07:39 UTC. Time now 2018-Jun-23 08:01 UTC.
Position N 34°25' E 134°21'.
Warning: this ship's position is 10 days out of date.

Length 76 m; draft 4 m.

Type: Cargo ship. MMSI: 431100299.

Date/timePositionNaut miles runAvg speedWind from/ knotsBaromVisibWave heightAir tempDewpointWater temp
2018-Jun-13 07:39N 34°25' E 134°21'712.4
2018-Jun-13 07:05N 34°27' E 134°29'112.4
2018-Jun-13 07:00N 34°28' E 134°30'612.2
2018-Jun-13 06:30N 34°30' E 134°37'612.0
2018-Jun-13 06:01N 34°32' E 134°44'611.2
2018-Jun-13 05:31N 34°34' E 134°50'6 9.6
2018-Jun-13 04:53N 34°37' E 134°57'4 8.6
2018-Jun-13 04:27N 34°37' E 135°01'3 7.0
2018-Jun-13 04:01N 34°36' E 135°04'510.5
2018-Jun-13 03:30N 34°35' E 135°11'611.6
2018-Jun-13 02:59N 34°34' E 135°18'611.6
2018-Jun-13 02:28N 34°33' E 135°25'1 0.3
2018-Jun-12 22:38N 34°34' E 135°26'0 0.5
2018-Jun-12 22:18N 34°33' E 135°26'1 2.2
2018-Jun-12 22:00N 34°33' E 135°25'0 0.0
2018-Jun-12 21:30N 34°33' E 135°25'0 0.0
2018-Jun-12 20:54N 34°33' E 135°25'0 0.0
2018-Jun-12 20:24N 34°33' E 135°25'0 0.0
2018-Jun-12 19:48N 34°33' E 135°25'0 0.1
2018-Jun-12 19:12N 34°33' E 135°25'0 0.2
2018-Jun-12 18:54N 34°33' E 135°25'0 0.0
2018-Jun-12 18:30N 34°33' E 135°25'0 0.0
2018-Jun-12 17:49N 34°33' E 135°25'1 3.7
2018-Jun-12 17:30N 34°33' E 135°24'611.9
2018-Jun-12 17:00N 34°34' E 135°17'612.4
2018-Jun-12 16:30N 34°35' E 135°09'714.8
2018-Jun-12 16:00N 34°37' E 135°01'813.8
2018-Jun-12 15:26N 34°34' E 134°52'512.7
2018-Jun-12 15:00N 34°32' E 134°46'612.1
2018-Jun-12 14:29N 34°30' E 134°39'612.0
2018-Jun-12 13:59N 34°27' E 134°32'711.7
2018-Jun-12 13:25N 34°25' E 134°24'  
2018-Jun-07 05:05N 34°35' E 134°14'512.9
2018-Jun-07 04:42N 34°35' E 134°20'611.0
2018-Jun-07 04:07N 34°31' E 134°27'113.0
2018-Jun-07 04:00N 34°30' E 134°28'712.9
2018-Jun-07 03:30N 34°24' E 134°32'613.0
2018-Jun-07 03:00N 34°18' E 134°35'712.6
2018-Jun-07 02:28N 34°13' E 134°40'612.3
2018-Jun-07 02:00N 34°08' E 134°45'611.9
2018-Jun-07 01:30N 34°04' E 134°49'612.2
2018-Jun-07 00:59N 33°59' E 134°54'612.0
2018-Jun-07 00:30N 33°54' E 134°58'612.0
2018-Jun-07 00:00N 33°50' E 135°03'24510.3
2018-Jun-06 00:20N 35°09' E 139°44'612.4
2018-Jun-05 23:53N 35°15' E 139°46'512.5
2018-Jun-05 23:30N 35°19' E 139°43'611.9
2018-Jun-05 23:00N 35°25' E 139°43'2 3.8
2018-Jun-05 22:28N 35°27' E 139°43'0 0.0
2018-Jun-05 21:58N 35°27' E 139°43'0 0.0
2018-Jun-05 21:25N 35°27' E 139°43'0 0.0
2018-Jun-05 20:58N 35°27' E 139°43'0 0.0
2018-Jun-05 20:28N 35°27' E 139°43'1 2.3
2018-Jun-05 20:01N 35°28' E 139°43'0 0.6
2018-Jun-05 19:28N 35°28' E 139°43'0 0.0
2018-Jun-05 18:58N 35°28' E 139°43'0 0.0
2018-Jun-05 18:28N 35°28' E 139°43'0 0.0
2018-Jun-05 17:58N 35°28' E 139°43'0 0.0
2018-Jun-05 17:28N 35°28' E 139°43'0 0.0
2018-Jun-05 16:58N 35°28' E 139°43'0 0.0
2018-Jun-05 16:28N 35°28' E 139°43'0 0.0
2018-Jun-05 15:58N 35°28' E 139°43'0 0.0
2018-Jun-05 15:28N 35°28' E 139°43'0 0.0
2018-Jun-05 14:58N 35°28' E 139°43'0 0.1
2018-Jun-05 14:28N 35°28' E 139°43'0 0.1
2018-Jun-05 13:58N 35°28' E 139°43'0 0.0
2018-Jun-05 13:28N 35°28' E 139°43'0 0.1
2018-Jun-05 12:58N 35°28' E 139°43'0 0.0
2018-Jun-05 12:28N 35°28' E 139°43'0 0.0
2018-Jun-05 11:58N 35°28' E 139°43'0 0.1
2018-Jun-05 11:28N 35°28' E 139°43'0 0.0
2018-Jun-05 10:58N 35°28' E 139°43'0 0.0
2018-Jun-05 10:25N 35°28' E 139°43'0 0.0
2018-Jun-05 09:58N 35°28' E 139°43'0 0.0
2018-Jun-05 09:25N 35°28' E 139°43'0 0.0
2018-Jun-05 08:58N 35°28' E 139°43'0 0.0
2018-Jun-05 08:28N 35°28' E 139°43'0 0.0
2018-Jun-05 07:58N 35°28' E 139°43'0 0.0
2018-Jun-05 07:28N 35°28' E 139°43'0 0.0
2018-Jun-05 06:58N 35°28' E 139°43'0 0.0
2018-Jun-05 06:28N 35°28' E 139°43'0 0.0
2018-Jun-05 05:58N 35°28' E 139°43'0 0.0
2018-Jun-05 05:28N 35°28' E 139°43'0 0.0
2018-Jun-05 04:58N 35°28' E 139°43'0 0.0
2018-Jun-05 04:28N 35°28' E 139°43'0 0.0
2018-Jun-05 03:58N 35°28' E 139°43'0 0.0
2018-Jun-05 03:28N 35°28' E 139°43'0 0.0
2018-Jun-05 02:58N 35°28' E 139°43'0 0.0
2018-Jun-05 02:28N 35°28' E 139°43'0 0.0
2018-Jun-05 01:58N 35°28' E 139°43'0 0.1
2018-Jun-05 01:28N 35°28' E 139°43'0 0.0
2018-Jun-05 00:58N 35°28' E 139°43'0 0.1
2018-Jun-05 00:28N 35°28' E 139°43'0 0.0
2018-Jun-04 23:58N 35°28' E 139°43'0 0.0
2018-Jun-04 23:28N 35°28' E 139°43'0 0.3
2018-Jun-04 23:00N 35°28' E 139°43'3 6.7
2018-Jun-04 22:30N 35°25' E 139°45'4 9.0
2018-Jun-04 22:00N 35°21' E 139°45'4 8.3
2018-Jun-04 21:30N 35°17' E 139°46'5 9.0
2018-Jun-04 21:00N 35°12' E 139°47'  

Dump ship's entire track history